createdAt,value
2023-04-05T00:00:57.850Z,-0.70
2023-04-05T00:03:24.644Z,-0.72
2023-04-05T00:05:54.577Z,-0.77
2023-04-05T00:08:24.024Z,-0.76
2023-04-05T00:10:50.974Z,-0.80
2023-04-05T00:13:17.404Z,-0.91
2023-04-05T00:15:44.150Z,-1.09
2023-04-05T00:18:22.081Z,-1.00
2023-04-05T00:20:49.930Z,-1.04
2023-04-05T00:23:17.659Z,-1.11
2023-04-05T00:25:45.149Z,-1.17
2023-04-05T00:28:12.374Z,-1.24
2023-04-05T00:30:39.836Z,-1.24
2023-04-05T00:33:06.688Z,-1.25
2023-04-05T00:35:33.230Z,-1.34
2023-04-05T00:37:59.806Z,-1.31
2023-04-05T00:40:26.491Z,-1.33
2023-04-05T00:42:52.960Z,-1.32
2023-04-05T00:45:19.403Z,-1.29
2023-04-05T00:47:46.141Z,-1.26
2023-04-05T00:50:13.638Z,-1.39
2023-04-05T00:52:43.502Z,-1.42
2023-04-05T00:55:10.905Z,-1.42
2023-04-05T00:57:39.260Z,-1.44
2023-04-05T01:00:09.473Z,-1.45
2023-04-05T01:02:45.887Z,-1.50
2023-04-05T01:09:08.898Z,-1.59
2023-04-05T01:11:38.007Z,-1.60
2023-04-05T01:14:04.608Z,-1.63
2023-04-05T01:16:31.106Z,-1.59
2023-04-05T01:18:58.353Z,-1.65
2023-04-05T01:21:29.657Z,-1.65
2023-04-05T01:24:32.281Z,-1.69
2023-04-05T01:27:19.757Z,-1.74
2023-04-05T01:30:04.392Z,-1.79
2023-04-05T01:32:50.411Z,-1.77
2023-04-05T01:35:19.384Z,-1.80
2023-04-05T01:37:52.839Z,-1.90
2023-04-05T01:40:20.261Z,-1.92
2023-04-05T01:42:46.821Z,-1.92
2023-04-05T01:45:13.453Z,-1.95
2023-04-05T01:47:40.064Z,-1.96
2023-04-05T01:50:07.263Z,-2.05
2023-04-05T01:52:33.713Z,-2.04
2023-04-05T01:55:00.288Z,-1.96
2023-04-05T01:57:26.857Z,-2.01
2023-04-05T01:59:53.290Z,-2.17
2023-04-05T02:02:19.727Z,-2.18
2023-04-05T02:04:46.177Z,-2.20
2023-04-05T02:07:12.638Z,-2.26
2023-04-05T02:09:39.095Z,-2.21
2023-04-05T02:12:05.904Z,-2.22
2023-04-05T02:14:32.357Z,-2.25
2023-04-05T02:16:58.808Z,-2.11
2023-04-05T02:19:26.225Z,-2.08
2023-04-05T02:21:55.799Z,-2.06
2023-04-05T02:24:22.472Z,-2.15
2023-04-05T02:26:48.943Z,-2.19
2023-04-05T02:29:15.433Z,-2.13
2023-04-05T02:31:41.898Z,-2.11
2023-04-05T02:34:11.568Z,-2.08
2023-04-05T02:36:38.111Z,-2.16
2023-04-05T02:39:04.806Z,-2.11
2023-04-05T02:41:31.320Z,-2.19
2023-04-05T02:43:58.925Z,-2.18
2023-04-05T02:46:25.793Z,-2.21
2023-04-05T02:48:52.465Z,-2.10
2023-04-05T02:51:18.890Z,-2.11
2023-04-05T02:53:45.351Z,-2.15
2023-04-05T02:56:13.680Z,-2.17
2023-04-05T02:58:41.027Z,-2.19
2023-04-05T03:01:08.845Z,-2.25
2023-04-05T03:03:35.655Z,-2.13
2023-04-05T03:06:10.624Z,-2.03
2023-04-05T03:08:46.464Z,-2.00
2023-04-05T03:11:13.041Z,-1.88
2023-04-05T03:13:39.486Z,-1.92
2023-04-05T03:16:06.507Z,-1.84
2023-04-05T03:18:33.194Z,-2.04
2023-04-05T03:20:59.829Z,-2.17
2023-04-05T03:23:28.595Z,-2.14
2023-04-05T03:26:04.802Z,-2.02
2023-04-05T03:28:34.737Z,-1.94
2023-04-05T03:31:01.269Z,-1.96
2023-04-05T03:33:27.851Z,-1.98
2023-04-05T03:35:54.411Z,-1.90
2023-04-05T03:38:21.408Z,-1.88
2023-04-05T03:40:47.967Z,-1.89
2023-04-05T03:43:14.377Z,-1.87
2023-04-05T03:45:41.111Z,-1.89
2023-04-05T03:48:07.799Z,-2.01
2023-04-05T03:50:34.278Z,-2.05
2023-04-05T03:53:01.493Z,-2.02
2023-04-05T03:55:28.011Z,-1.99
2023-04-05T03:57:54.818Z,-1.99
2023-04-05T04:00:24.424Z,-1.97
2023-04-05T04:02:52.610Z,-1.96
2023-04-05T04:05:19.950Z,-1.91
2023-04-05T04:07:47.205Z,-1.82
2023-04-05T04:10:17.586Z,-1.83
2023-04-05T04:12:44.664Z,-1.80
2023-04-05T04:15:11.672Z,-1.87
2023-04-05T04:17:38.327Z,-1.77
2023-04-05T04:20:10.949Z,-1.83
2023-04-05T04:22:38.840Z,-1.81
2023-04-05T04:25:12.589Z,-1.80
2023-04-05T04:27:44.585Z,-1.77
2023-04-05T04:32:55.825Z,-1.72
2023-04-05T04:35:25.144Z,-1.82
2023-04-05T04:38:00.045Z,-1.79
2023-04-05T04:40:32.455Z,-1.84
2023-04-05T04:43:00.149Z,-1.84
2023-04-05T04:45:26.742Z,-1.83
2023-04-05T04:47:53.760Z,-1.72
2023-04-05T04:50:20.935Z,-1.70
2023-04-05T04:52:47.860Z,-1.79
2023-04-05T04:55:14.497Z,-1.78
2023-04-05T04:57:42.136Z,-1.80
2023-04-05T05:00:14.703Z,-1.72
2023-04-05T05:02:43.998Z,-1.65
2023-04-05T05:05:11.306Z,-1.71
2023-04-05T05:07:38.938Z,-1.72
2023-04-05T05:10:06.253Z,-1.64
2023-04-05T05:12:32.887Z,-1.62
2023-04-05T05:14:59.457Z,-1.55
2023-04-05T05:17:26.043Z,-1.54
2023-04-05T05:19:53.750Z,-1.54
2023-04-05T05:22:21.664Z,-1.38
2023-04-05T05:24:48.116Z,-1.39
2023-04-05T05:27:14.897Z,-1.39
2023-04-05T05:29:41.457Z,-1.34
2023-04-05T05:32:09.290Z,-1.24
2023-04-05T05:34:36.736Z,-1.18
2023-04-05T05:37:03.177Z,-1.18
2023-04-05T05:39:29.564Z,-1.09
2023-04-05T05:41:56.290Z,-1.09
2023-04-05T05:44:22.833Z,-0.93
2023-04-05T05:46:49.252Z,-1.10
2023-04-05T05:49:17.697Z,-1.15
2023-04-05T05:51:44.127Z,-0.96
2023-04-05T05:54:10.601Z,-1.01
2023-04-05T05:56:37.076Z,-0.87
2023-04-05T05:59:03.824Z,-0.76
2023-04-05T06:01:30.251Z,-0.69
2023-04-05T06:03:56.801Z,-0.73
2023-04-05T06:06:23.542Z,-0.69
2023-04-05T06:08:50.014Z,-0.66
2023-04-05T06:11:18.161Z,-0.48
2023-04-05T06:13:44.733Z,-0.38
2023-04-05T06:16:11.278Z,-0.40
2023-04-05T06:18:37.755Z,-0.48
2023-04-05T06:21:04.247Z,-0.36
2023-04-05T06:23:30.823Z,-0.17
2023-04-05T06:25:57.356Z,0.05
2023-04-05T06:28:23.774Z,0.22
2023-04-05T06:30:50.474Z,0.32
2023-04-05T06:33:17.005Z,0.22
2023-04-05T06:35:43.481Z,0.28
2023-04-05T06:38:10.072Z,0.21
2023-04-05T06:40:36.700Z,0.48
2023-04-05T06:43:03.341Z,0.61
2023-04-05T06:45:29.786Z,0.59
2023-04-05T06:47:56.428Z,0.55
2023-04-05T06:50:22.937Z,0.88
2023-04-05T06:52:49.501Z,0.85
2023-04-05T06:55:16.149Z,0.82
2023-04-05T06:57:42.642Z,0.79
2023-04-05T07:00:13.049Z,0.66
2023-04-05T07:02:39.517Z,0.61
2023-04-05T07:05:06.333Z,0.97
2023-04-05T07:07:33.435Z,0.96
2023-04-05T07:10:00.084Z,0.96
2023-04-05T07:12:26.502Z,0.97
2023-04-05T07:14:52.964Z,0.86
2023-04-05T07:17:19.429Z,1.05
2023-04-05T07:19:46.309Z,1.08
2023-04-05T07:22:12.743Z,1.19
2023-04-05T07:24:39.323Z,1.31
2023-04-05T07:27:05.855Z,1.37
2023-04-05T07:29:32.324Z,1.71
2023-04-05T07:31:58.957Z,1.74
2023-04-05T07:34:25.587Z,1.57
2023-04-05T07:36:52.049Z,1.80
2023-04-05T07:39:20.016Z,1.89
2023-04-05T07:41:46.690Z,2.12
2023-04-05T07:44:13.109Z,2.22
2023-04-05T07:49:12.088Z,3.12
2023-04-05T07:51:38.584Z,3.20
2023-04-05T07:54:06.625Z,2.89
2023-04-05T07:56:33.147Z,2.70
2023-04-05T07:58:59.796Z,3.21
2023-04-05T08:01:29.299Z,3.95
2023-04-05T08:03:58.458Z,4.40
2023-04-05T08:06:27.407Z,4.19
2023-04-05T08:08:53.822Z,4.51
2023-04-05T08:11:21.664Z,5.40
2023-04-05T08:13:48.383Z,6.04
2023-04-05T08:16:15.020Z,6.92
2023-04-05T08:18:41.526Z,7.16
2023-04-05T08:21:07.989Z,6.82
2023-04-05T08:23:34.673Z,6.81
2023-04-05T08:26:01.827Z,7.28
2023-04-05T08:28:28.298Z,6.89
2023-04-05T08:30:55.714Z,6.52
2023-04-05T08:33:22.336Z,6.83
2023-04-05T08:35:48.967Z,6.29
2023-04-05T08:38:15.546Z,6.66
2023-04-05T08:40:43.527Z,7.00
2023-04-05T08:43:33.839Z,7.18
2023-04-05T08:46:01.957Z,7.27
2023-04-05T08:48:32.278Z,7.03
2023-04-05T08:50:58.746Z,7.15
2023-04-05T08:53:25.280Z,6.59
2023-04-05T08:55:55.834Z,7.11
2023-04-05T08:58:23.940Z,7.15
2023-04-05T09:00:51.661Z,7.66
2023-04-05T09:03:23.777Z,7.87
2023-04-05T09:05:51.785Z,7.06
2023-04-05T09:08:18.764Z,7.71
2023-04-05T09:10:45.586Z,7.26
2023-04-05T09:13:12.038Z,7.85
2023-04-05T09:15:39.321Z,8.20
2023-04-05T09:18:15.549Z,8.36
2023-04-05T09:20:50.091Z,8.92
2023-04-05T09:23:16.989Z,9.66
2023-04-05T09:25:43.792Z,9.75
2023-04-05T09:28:10.283Z,10.03
2023-04-05T09:30:37.312Z,9.14
2023-04-05T09:33:07.375Z,8.33
2023-04-05T09:35:36.760Z,7.35
2023-04-05T09:38:05.484Z,7.70
2023-04-05T09:40:46.228Z,8.43
2023-04-05T09:43:14.331Z,8.84
2023-04-05T09:45:42.810Z,8.10
2023-04-05T09:48:10.168Z,8.41
2023-04-05T09:50:36.701Z,8.68
2023-04-05T09:53:15.462Z,8.26
2023-04-05T09:55:43.229Z,7.59
2023-04-05T09:58:14.055Z,7.10
2023-04-05T10:00:55.707Z,7.39
2023-04-05T10:03:27.378Z,8.48
2023-04-05T10:05:56.816Z,8.02
2023-04-05T10:08:24.265Z,7.27
2023-04-05T10:10:54.611Z,6.62
2023-04-05T10:13:21.093Z,6.24
2023-04-05T10:15:54.408Z,6.53
2023-04-05T10:18:39.142Z,6.61
2023-04-05T10:21:06.503Z,6.67
2023-04-05T10:23:35.167Z,6.91
2023-04-05T10:26:10.216Z,6.64
2023-04-05T10:28:40.625Z,6.20
2023-04-05T10:31:37.644Z,6.12
2023-04-05T10:34:13.464Z,5.57
2023-04-05T10:36:50.248Z,6.06
2023-04-05T10:39:21.608Z,6.18
2023-04-05T10:41:53.037Z,5.68
2023-04-05T10:44:26.262Z,5.57
2023-04-05T10:46:54.806Z,5.55
2023-04-05T10:49:37.090Z,5.27
2023-04-05T10:52:04.274Z,5.12
2023-04-05T10:54:36.667Z,5.10
2023-04-05T10:57:09.003Z,4.98
2023-04-05T10:59:41.677Z,4.81
2023-04-05T11:02:09.478Z,4.56
2023-04-05T11:04:36.511Z,4.48
2023-04-05T11:07:15.541Z,4.27
2023-04-05T11:10:01.111Z,4.36
2023-04-05T11:12:46.345Z,4.59
2023-04-05T11:15:29.001Z,4.40
2023-04-05T11:18:17.893Z,4.41
2023-04-05T11:20:48.344Z,4.21
2023-04-05T11:23:17.373Z,4.24
2023-04-05T11:25:48.107Z,3.97
2023-04-05T11:28:31.857Z,4.02
2023-04-05T11:31:13.044Z,4.15
2023-04-05T11:33:56.922Z,4.05
2023-04-05T11:36:38.370Z,4.20
2023-04-05T11:39:22.994Z,4.12
2023-04-05T11:42:00.637Z,3.93
2023-04-05T11:44:28.260Z,4.16
2023-04-05T11:46:55.099Z,4.27
2023-04-05T11:49:25.899Z,4.07
2023-04-05T11:51:53.889Z,4.20
2023-04-05T11:54:33.641Z,4.40
2023-04-05T11:57:01.264Z,4.70
2023-04-05T11:59:29.495Z,5.03
2023-04-05T12:02:06.091Z,5.04
2023-04-05T12:04:32.560Z,4.77
2023-04-05T12:07:15.981Z,4.73
2023-04-05T12:10:08.927Z,4.63
2023-04-05T12:12:39.394Z,4.37
2023-04-05T12:15:08.740Z,4.06
2023-04-05T12:17:44.142Z,4.01
2023-04-05T12:20:19.613Z,3.86
2023-04-05T12:22:48.700Z,3.76
2023-04-05T12:25:16.504Z,3.60
2023-04-05T12:27:43.240Z,3.66
2023-04-05T12:30:20.903Z,3.68
2023-04-05T12:32:51.310Z,3.35
2023-04-05T12:35:35.189Z,2.96
2023-04-05T12:38:03.567Z,3.33
2023-04-05T12:40:31.042Z,3.41
2023-04-05T12:43:08.449Z,3.11
2023-04-05T12:45:43.012Z,2.90
2023-04-05T12:48:13.292Z,2.90
2023-04-05T12:50:45.061Z,2.92
2023-04-05T12:53:23.480Z,2.93
2023-04-05T12:55:52.466Z,3.03
2023-04-05T12:58:31.974Z,3.05
2023-04-05T13:00:58.676Z,3.12
2023-04-05T13:03:26.832Z,3.44
2023-04-05T13:05:53.755Z,3.79
2023-04-05T13:08:20.303Z,3.95
2023-04-05T13:10:48.590Z,4.07
2023-04-05T13:13:16.574Z,4.31
2023-04-05T13:15:43.830Z,4.45
2023-04-05T13:18:10.754Z,4.52
2023-04-05T13:20:37.648Z,4.23
2023-04-05T13:23:04.062Z,4.00
2023-04-05T13:25:30.542Z,4.14
2023-04-05T13:27:57.017Z,4.38
2023-04-05T13:30:23.621Z,4.62
2023-04-05T13:32:50.257Z,4.44
2023-04-05T13:35:16.715Z,4.47
2023-04-05T13:37:43.216Z,4.54
2023-04-05T13:40:10.100Z,4.41
2023-04-05T13:42:36.605Z,4.39
2023-04-05T13:45:03.157Z,4.48
2023-04-05T13:47:29.855Z,4.56
2023-04-05T13:49:56.386Z,3.99
2023-04-05T13:52:23.109Z,4.34
2023-04-05T13:54:49.556Z,4.72
2023-04-05T13:57:29.848Z,4.52
2023-04-05T13:59:56.354Z,4.55
2023-04-05T14:02:25.882Z,4.37
2023-04-05T14:04:55.941Z,4.38
2023-04-05T14:07:23.347Z,4.37
2023-04-05T14:09:49.841Z,4.40
2023-04-05T14:12:16.279Z,4.42
2023-04-05T14:14:42.767Z,4.53
2023-04-05T14:17:11.478Z,4.51
2023-04-05T14:19:38.704Z,4.52
2023-04-05T14:22:05.251Z,4.56
2023-04-05T14:24:31.740Z,4.52
2023-04-05T14:26:58.970Z,4.50
2023-04-05T14:29:25.569Z,4.49
2023-04-05T14:31:52.188Z,4.39
2023-04-05T14:34:19.788Z,4.51
2023-04-05T14:36:46.325Z,3.92
2023-04-05T14:39:13.064Z,3.89
2023-04-05T14:41:39.694Z,4.12
2023-04-05T14:44:06.346Z,4.32
2023-04-05T14:46:33.125Z,4.22
2023-04-05T14:48:59.783Z,4.25
2023-04-05T14:51:27.320Z,4.27
2023-04-05T14:53:53.794Z,4.10
2023-04-05T14:56:20.389Z,4.05
2023-04-05T14:58:46.951Z,4.05
2023-04-05T15:01:13.576Z,4.08
2023-04-05T15:03:40.277Z,4.08
2023-04-05T15:06:07.002Z,4.03
2023-04-05T15:08:33.524Z,4.15
2023-04-05T15:11:00.514Z,4.25
2023-04-05T15:13:27.064Z,4.32
2023-04-05T15:15:53.698Z,4.06
2023-04-05T15:18:20.449Z,4.36
2023-04-05T15:20:47.013Z,4.40
2023-04-05T15:23:13.737Z,4.01
2023-04-05T15:25:40.450Z,4.04
2023-04-05T15:28:07.278Z,3.97
2023-04-05T15:30:33.880Z,4.07
2023-04-05T15:33:00.721Z,4.08
2023-04-05T15:35:27.648Z,3.99
2023-04-05T15:37:54.166Z,3.89
2023-04-05T15:40:20.760Z,3.40
2023-04-05T15:42:47.218Z,3.57
2023-04-05T15:45:13.723Z,3.96
2023-04-05T15:47:40.361Z,4.19
2023-04-05T15:50:07.391Z,4.29
2023-04-05T15:52:35.308Z,4.28
2023-04-05T15:55:02.515Z,3.87
2023-04-05T15:57:29.118Z,4.01
2023-04-05T15:59:55.612Z,4.06
2023-04-05T16:02:22.178Z,3.78
2023-04-05T16:04:48.977Z,3.73
2023-04-05T16:07:15.630Z,3.82
2023-04-05T16:09:42.194Z,3.86
2023-04-05T16:12:08.757Z,3.87
2023-04-05T16:14:35.369Z,3.87
2023-04-05T16:17:02.026Z,3.74
2023-04-05T16:19:28.581Z,3.85
2023-04-05T16:21:55.903Z,3.85
2023-04-05T16:24:22.710Z,3.64
2023-04-05T16:26:49.266Z,3.64
2023-04-05T16:29:15.821Z,3.72
2023-04-05T16:31:47.093Z,3.79
2023-04-05T16:34:14.145Z,3.63
2023-04-05T16:36:41.702Z,3.55
2023-04-05T16:39:08.733Z,3.68
2023-04-05T16:41:38.198Z,3.70
2023-04-05T16:44:04.709Z,3.80
2023-04-05T16:46:32.225Z,3.58
2023-04-05T16:48:59.720Z,3.70
2023-04-05T16:51:27.523Z,3.49
2023-04-05T16:53:54.812Z,3.47
2023-04-05T16:56:21.830Z,3.39
2023-04-05T16:58:48.341Z,3.30
2023-04-05T17:01:14.979Z,3.06
2023-04-05T17:03:42.234Z,3.05
2023-04-05T17:06:11.025Z,2.96
2023-04-05T17:08:37.554Z,3.10
2023-04-05T17:11:04.202Z,3.07
2023-04-05T17:13:30.797Z,3.04
2023-04-05T17:15:57.300Z,2.96
2023-04-05T17:18:24.025Z,2.72
2023-04-05T17:20:50.510Z,2.74
2023-04-05T17:23:17.388Z,2.78
2023-04-05T17:25:43.860Z,2.76
2023-04-05T17:28:10.383Z,2.68
2023-04-05T17:30:37.046Z,2.72
2023-04-05T17:33:03.812Z,2.66
2023-04-05T17:35:31.099Z,2.62
2023-04-05T17:37:58.893Z,2.62
2023-04-05T17:40:25.372Z,2.59
2023-04-05T17:42:51.892Z,2.49
2023-04-05T17:45:18.462Z,2.50
2023-04-05T17:47:44.981Z,2.46
2023-04-05T17:50:11.661Z,2.45
2023-04-05T17:52:38.263Z,2.45
2023-04-05T17:55:05.368Z,2.35
2023-04-05T17:57:31.874Z,2.38
2023-04-05T17:59:59.236Z,2.35
2023-04-05T18:02:27.522Z,2.36
2023-04-05T18:04:54.049Z,2.43
2023-04-05T18:07:20.631Z,2.51
2023-04-05T18:09:47.147Z,2.38
2023-04-05T18:12:13.635Z,2.38
2023-04-05T18:14:40.185Z,2.41
2023-04-05T18:17:09.445Z,2.37
2023-04-05T18:19:35.928Z,2.37
2023-04-05T18:22:02.568Z,2.37
2023-04-05T18:24:29.553Z,2.47
2023-04-05T18:26:56.220Z,2.50
2023-04-05T18:29:28.117Z,2.46
2023-04-05T18:31:55.697Z,2.50
2023-04-05T18:34:22.498Z,2.49
2023-04-05T18:36:48.993Z,2.43
2023-04-05T18:39:16.574Z,2.44
2023-04-05T18:41:43.103Z,2.43
2023-04-05T18:44:09.661Z,2.37
2023-04-05T18:46:36.170Z,2.41
2023-04-05T18:49:03.249Z,2.37
2023-04-05T18:51:29.764Z,2.38
2023-04-05T18:53:57.489Z,2.35
2023-04-05T18:56:23.977Z,2.33
2023-04-05T18:58:51.121Z,2.26
2023-04-05T19:01:19.773Z,2.30
2023-04-05T19:03:47.344Z,2.30
2023-04-05T19:06:14.518Z,2.28
2023-04-05T19:08:41.310Z,2.41
2023-04-05T19:11:08.560Z,2.47
2023-04-05T19:13:35.096Z,2.30
2023-04-05T19:16:01.841Z,2.25
2023-04-05T19:18:29.757Z,2.26
2023-04-05T19:20:57.871Z,2.26
2023-04-05T19:23:26.504Z,2.26
2023-04-05T19:25:57.048Z,2.13
2023-04-05T19:28:24.602Z,1.99
2023-04-05T19:30:51.212Z,2.01
2023-04-05T19:33:19.695Z,2.07
2023-04-05T19:35:48.057Z,1.95
2023-04-05T19:38:14.978Z,1.98
2023-04-05T19:40:42.331Z,1.97
2023-04-05T19:43:09.688Z,1.97
2023-04-05T19:45:36.442Z,1.94
2023-04-05T19:48:26.003Z,2.05
2023-04-05T19:50:56.151Z,2.08
2023-04-05T19:53:44.249Z,2.09
2023-04-05T19:56:18.575Z,1.99
2023-04-05T19:58:46.796Z,1.99
2023-04-05T20:01:29.644Z,1.83
2023-04-05T20:03:56.230Z,1.86
2023-04-05T20:06:23.886Z,1.87
2023-04-05T20:08:50.490Z,1.63
2023-04-05T20:11:19.310Z,1.59
2023-04-05T20:13:57.972Z,1.75
2023-04-05T20:16:32.048Z,1.75
2023-04-05T20:19:02.358Z,1.59
2023-04-05T20:21:29.010Z,1.58
2023-04-05T20:23:55.859Z,1.44
2023-04-05T20:26:31.031Z,1.46
2023-04-05T20:29:02.728Z,1.43
2023-04-05T20:31:33.674Z,1.49
2023-04-05T20:34:14.272Z,1.48
2023-04-05T20:36:52.177Z,1.44
2023-04-05T20:39:19.159Z,1.41
2023-04-05T20:41:46.768Z,1.43
2023-04-05T20:44:13.357Z,1.46
2023-04-05T20:46:39.945Z,1.27
2023-04-05T20:49:07.386Z,1.37
2023-04-05T20:51:34.101Z,1.29
2023-04-05T20:54:01.224Z,1.34
2023-04-05T20:56:27.753Z,1.21
2023-04-05T20:58:57.231Z,1.24
2023-04-05T21:01:23.809Z,1.38
2023-04-05T21:03:50.477Z,1.37
2023-04-05T21:06:17.089Z,1.25
2023-04-05T21:08:43.565Z,1.26
2023-04-05T21:11:11.722Z,1.17
2023-04-05T21:13:39.348Z,1.10
2023-04-05T21:16:06.158Z,1.17
2023-04-05T21:18:33.332Z,1.27
2023-04-05T21:21:00.635Z,1.22
2023-04-05T21:23:28.331Z,1.20
2023-04-05T21:25:56.402Z,1.12
2023-04-05T21:28:24.331Z,1.10
2023-04-05T21:30:50.964Z,1.07
2023-04-05T21:33:17.997Z,1.22
2023-04-05T21:35:44.818Z,1.15
2023-04-05T21:38:13.541Z,1.13
2023-04-05T21:40:41.591Z,0.90
2023-04-05T21:43:08.113Z,0.96
2023-04-05T21:45:34.618Z,0.90
2023-04-05T21:48:01.258Z,0.94
2023-04-05T21:50:27.788Z,1.03
2023-04-05T21:52:54.496Z,1.00
2023-04-05T21:55:21.073Z,0.94
2023-04-05T21:57:47.590Z,0.78
2023-04-05T22:00:15.512Z,0.71
2023-04-05T22:02:42.028Z,0.64
2023-04-05T22:05:09.458Z,0.81
2023-04-05T22:07:36.305Z,0.80
2023-04-05T22:10:03.925Z,0.81
2023-04-05T22:12:30.677Z,0.76
2023-04-05T22:14:57.209Z,0.75
2023-04-05T22:17:23.773Z,0.76
2023-04-05T22:19:50.496Z,0.82
2023-04-05T22:22:17.452Z,0.84
2023-04-05T22:24:44.423Z,0.70
2023-04-05T22:27:11.813Z,0.72
2023-04-05T22:29:39.173Z,0.72
2023-04-05T22:32:06.333Z,0.75
2023-04-05T22:34:33.031Z,0.81
2023-04-05T22:37:00.013Z,0.89
2023-04-05T22:39:27.741Z,0.84
2023-04-05T22:41:54.538Z,0.83
2023-04-05T22:44:21.705Z,0.66
2023-04-05T22:46:48.175Z,0.60
2023-04-05T22:49:14.638Z,0.68
2023-04-05T22:51:41.218Z,0.54
2023-04-05T22:54:07.711Z,0.64
2023-04-05T22:56:34.147Z,0.51
2023-04-05T22:59:00.758Z,0.58
2023-04-05T23:01:27.321Z,0.44
2023-04-05T23:03:53.771Z,0.43
2023-04-05T23:06:20.417Z,0.34
2023-04-05T23:08:46.893Z,0.32
2023-04-05T23:11:13.408Z,0.50
2023-04-05T23:13:39.896Z,0.41
2023-04-05T23:16:06.810Z,0.41
2023-04-05T23:18:33.318Z,0.42
2023-04-05T23:20:59.859Z,0.56
2023-04-05T23:23:27.065Z,0.47
2023-04-05T23:25:53.505Z,0.29
2023-04-05T23:28:20.123Z,0.35
2023-04-05T23:30:48.802Z,0.13
2023-04-05T23:33:16.106Z,0.27
2023-04-05T23:35:42.858Z,0.14
2023-04-05T23:38:09.441Z,0.15
2023-04-05T23:40:35.918Z,0.04
2023-04-05T23:43:02.612Z,-0.04
2023-04-05T23:45:29.105Z,-0.00
2023-04-05T23:47:55.695Z,-0.05
2023-04-05T23:50:22.473Z,0.03
2023-04-05T23:52:49.184Z,-0.06
2023-04-05T23:55:15.797Z,0.03
2023-04-05T23:57:42.604Z,-0.11
